createdAt,value
2022-11-23T00:00:34.563Z,65.03
2022-11-23T00:03:22.308Z,57.67
2022-11-23T00:05:49.946Z,48.80
2022-11-23T00:08:17.801Z,47.20
2022-11-23T00:10:45.463Z,37.30
2022-11-23T00:13:13.239Z,34.10
2022-11-23T00:15:41.528Z,36.93
2022-11-23T00:18:09.444Z,37.13
2022-11-23T00:20:39.738Z,39.60
2022-11-23T00:23:07.649Z,32.00
2022-11-23T00:25:35.425Z,28.17
2022-11-23T00:28:03.271Z,27.40
2022-11-23T00:30:30.989Z,25.83
2022-11-23T00:32:58.920Z,31.00
2022-11-23T00:35:26.781Z,32.23
2022-11-23T00:37:54.574Z,28.40
2022-11-23T00:40:22.240Z,32.17
2022-11-23T00:42:50.121Z,41.43
2022-11-23T00:45:17.781Z,35.43
2022-11-23T00:47:45.635Z,33.97
2022-11-23T00:50:13.287Z,48.33
2022-11-23T00:52:41.174Z,35.83
2022-11-23T00:55:08.901Z,45.53
2022-11-23T00:57:36.713Z,62.93
2022-11-23T01:00:05.085Z,54.37
2022-11-23T01:02:35.925Z,79.23
2022-11-23T01:05:04.308Z,109.80
2022-11-23T01:07:32.332Z,91.97
2022-11-23T01:10:00.024Z,89.43
2022-11-23T01:12:29.687Z,115.60
2022-11-23T01:14:57.476Z,93.40
2022-11-23T01:17:25.584Z,136.17
2022-11-23T01:19:53.108Z,92.43
2022-11-23T01:22:20.900Z,93.03
2022-11-23T01:24:50.544Z,102.23
2022-11-23T01:27:18.362Z,78.67
2022-11-23T01:29:45.981Z,79.43
2022-11-23T01:32:13.756Z,91.27
2022-11-23T01:35:01.527Z,109.47
2022-11-23T01:37:29.489Z,103.83
2022-11-23T01:39:57.164Z,110.30
2022-11-23T01:42:38.582Z,115.60
2022-11-23T01:45:25.107Z,106.73
2022-11-23T01:47:52.956Z,162.37
2022-11-23T01:50:20.584Z,93.63
2022-11-23T01:52:48.412Z,128.90
2022-11-23T01:55:16.235Z,98.30
2022-11-23T01:57:44.576Z,83.70
2022-11-23T02:00:13.550Z,115.17
2022-11-23T02:02:43.629Z,108.43
2022-11-23T02:05:11.781Z,98.93
2022-11-23T02:07:40.196Z,127.53
2022-11-23T02:10:08.260Z,108.27
2022-11-23T02:12:36.316Z,129.80
2022-11-23T02:15:05.224Z,99.40
2022-11-23T02:17:34.161Z,94.73
2022-11-23T02:20:01.871Z,90.40
2022-11-23T02:22:41.392Z,96.77
2022-11-23T02:25:18.315Z,93.88
2022-11-23T02:27:47.215Z,90.93
2022-11-23T02:30:15.047Z,93.80
2022-11-23T02:32:43.215Z,99.40
2022-11-23T02:35:13.941Z,96.93
2022-11-23T02:37:44.247Z,94.20
2022-11-23T02:40:21.563Z,87.27
2022-11-23T02:42:50.229Z,92.57
2022-11-23T02:45:27.437Z,95.10
2022-11-23T02:47:55.361Z,86.27
2022-11-23T02:50:23.635Z,88.13
2022-11-23T02:52:51.486Z,78.40
2022-11-23T02:55:19.546Z,85.93
2022-11-23T02:57:47.340Z,91.73
2022-11-23T03:00:17.498Z,81.37
2022-11-23T03:02:45.470Z,117.30
2022-11-23T03:05:13.241Z,89.43
2022-11-23T03:07:41.170Z,84.03
2022-11-23T03:10:11.641Z,81.80
2022-11-23T03:12:39.938Z,72.00
2022-11-23T03:15:08.462Z,84.57
2022-11-23T03:17:37.929Z,96.53
2022-11-23T03:20:05.985Z,87.43
2022-11-23T03:22:37.877Z,84.07
2022-11-23T03:25:06.488Z,86.53
2022-11-23T03:27:34.932Z,78.27
2022-11-23T03:30:03.544Z,72.90
2022-11-23T03:32:34.238Z,85.27
2022-11-23T03:35:02.118Z,83.63
2022-11-23T03:37:30.414Z,75.40
2022-11-23T03:39:58.083Z,80.10
2022-11-23T03:42:44.700Z,68.93
2022-11-23T03:45:12.313Z,74.03
2022-11-23T03:47:40.918Z,68.93
2022-11-23T03:50:08.802Z,77.67
2022-11-23T03:52:38.460Z,66.70
2022-11-23T03:55:06.280Z,70.43
2022-11-23T03:57:35.100Z,75.67
2022-11-23T04:00:05.117Z,66.33
2022-11-23T04:02:41.458Z,65.60
2022-11-23T04:05:28.005Z,72.50
2022-11-23T04:08:22.203Z,70.60
2022-11-23T04:10:50.202Z,76.83
2022-11-23T04:13:23.383Z,129.53
2022-11-23T04:15:51.381Z,78.60
2022-11-23T04:18:19.361Z,57.60
2022-11-23T04:20:47.279Z,60.70
2022-11-23T04:23:15.119Z,76.80
2022-11-23T04:25:44.020Z,77.83
2022-11-23T04:28:11.940Z,103.80
2022-11-23T04:30:39.677Z,106.67
2022-11-23T04:33:07.860Z,68.00
2022-11-23T04:35:37.033Z,74.43
2022-11-23T04:38:05.067Z,58.17
2022-11-23T04:40:33.138Z,78.93
2022-11-23T04:43:05.357Z,68.55
2022-11-23T04:45:38.290Z,99.57
2022-11-23T04:48:08.267Z,66.10
2022-11-23T04:50:40.367Z,61.13
2022-11-23T04:53:09.192Z,63.60
2022-11-23T04:55:42.709Z,82.37
2022-11-23T04:58:11.837Z,66.13
2022-11-23T05:00:40.435Z,70.43
2022-11-23T05:03:09.393Z,67.47
2022-11-23T05:05:40.523Z,67.23
2022-11-23T05:08:09.324Z,61.77
2022-11-23T05:10:59.509Z,63.40
2022-11-23T05:13:27.552Z,58.67
2022-11-23T05:15:55.362Z,66.13
2022-11-23T05:18:27.225Z,63.17
2022-11-23T05:20:55.107Z,75.63
2022-11-23T05:23:23.652Z,70.03
2022-11-23T05:25:53.821Z,62.53
2022-11-23T05:28:39.692Z,57.83
2022-11-23T05:31:08.929Z,65.27
2022-11-23T05:33:37.461Z,68.47
2022-11-23T05:36:06.351Z,59.27
2022-11-23T05:38:38.325Z,68.67
2022-11-23T05:41:11.873Z,67.23
2022-11-23T05:43:42.640Z,64.37
2022-11-23T05:46:14.055Z,65.70
2022-11-23T05:48:42.558Z,63.77
2022-11-23T05:51:11.629Z,59.17
2022-11-23T05:53:45.191Z,66.03
2022-11-23T05:56:19.196Z,57.83
2022-11-23T05:59:05.405Z,61.20
2022-11-23T06:01:36.171Z,68.32
2022-11-23T06:04:06.825Z,55.60
2022-11-23T06:06:40.736Z,52.63
2022-11-23T06:09:08.642Z,60.60
2022-11-23T06:11:38.282Z,56.33
2022-11-23T06:14:14.407Z,51.00
2022-11-23T06:16:44.685Z,50.37
2022-11-23T06:19:32.355Z,58.30
2022-11-23T06:22:00.178Z,70.30
2022-11-23T06:27:22.831Z,52.47
2022-11-23T06:29:52.028Z,58.10
2022-11-23T06:32:22.983Z,51.17
2022-11-23T06:34:50.928Z,59.63
2022-11-23T06:37:18.926Z,52.43
2022-11-23T06:39:52.828Z,52.03
2022-11-23T06:42:39.327Z,50.00
2022-11-23T06:45:13.078Z,58.03
2022-11-23T06:47:41.012Z,55.03
2022-11-23T06:50:09.505Z,51.57
2022-11-23T06:52:38.522Z,54.80
2022-11-23T06:55:06.454Z,53.40
2022-11-23T06:57:34.162Z,60.57
2022-11-23T07:00:02.655Z,53.90
2022-11-23T07:02:35.508Z,51.47
2022-11-23T07:05:22.318Z,66.13
2022-11-23T07:07:50.041Z,56.53
2022-11-23T07:10:25.809Z,56.73
2022-11-23T07:13:04.891Z,56.23
2022-11-23T07:15:33.730Z,53.37
2022-11-23T07:18:02.524Z,59.33
2022-11-23T07:20:30.448Z,58.90
2022-11-23T07:23:01.994Z,62.20
2022-11-23T07:25:30.519Z,79.47
2022-11-23T07:27:59.329Z,80.80
2022-11-23T07:30:29.619Z,115.67
2022-11-23T07:33:08.271Z,107.88
2022-11-23T07:35:38.329Z,76.47
2022-11-23T07:38:07.974Z,122.70
2022-11-23T07:40:39.825Z,111.97
2022-11-23T07:43:14.245Z,97.00
2022-11-23T07:45:42.393Z,77.10
2022-11-23T07:48:16.520Z,64.17
2022-11-23T07:50:44.535Z,89.17
2022-11-23T07:53:12.606Z,64.43
2022-11-23T07:55:40.504Z,64.10
2022-11-23T07:58:08.155Z,58.73
2022-11-23T08:00:36.053Z,100.97
2022-11-23T08:03:26.775Z,87.20
2022-11-23T08:05:52.265Z,62.87
2022-11-23T08:08:20.013Z,70.53
2022-11-23T08:10:52.985Z,67.33
2022-11-23T08:13:21.430Z,59.67
2022-11-23T08:15:54.991Z,65.77
2022-11-23T08:18:24.011Z,80.27
2022-11-23T08:20:52.127Z,62.13
2022-11-23T08:23:20.108Z,67.80
2022-11-23T08:25:49.290Z,75.20
2022-11-23T08:28:17.020Z,82.27
2022-11-23T08:30:45.069Z,61.77
2022-11-23T08:33:13.520Z,67.50
2022-11-23T08:35:43.311Z,69.73
2022-11-23T08:38:11.451Z,69.30
2022-11-23T08:40:40.705Z,59.80
2022-11-23T08:43:08.336Z,52.63
2022-11-23T08:45:36.406Z,52.77
2022-11-23T08:48:04.535Z,59.83
2022-11-23T08:50:34.438Z,55.50
2022-11-23T08:53:02.123Z,48.60
2022-11-23T08:55:30.143Z,49.90
2022-11-23T08:57:58.599Z,49.03
2022-11-23T09:00:26.923Z,47.87
2022-11-23T09:02:55.031Z,44.93
2022-11-23T09:05:23.205Z,44.37
2022-11-23T09:07:51.326Z,54.07
2022-11-23T09:10:19.506Z,35.57
2022-11-23T09:12:47.966Z,48.40
2022-11-23T09:15:15.800Z,124.07
2022-11-23T09:17:44.078Z,117.50
2022-11-23T09:20:12.067Z,99.90
2022-11-23T09:22:40.330Z,111.90
2022-11-23T09:25:10.287Z,154.90
2022-11-23T09:27:38.257Z,93.93
2022-11-23T09:30:05.987Z,83.10
2022-11-23T09:32:35.407Z,57.13
2022-11-23T09:35:02.958Z,55.70
2022-11-23T09:37:32.282Z,108.90
2022-11-23T09:40:00.198Z,72.20
2022-11-23T09:42:28.206Z,55.53
2022-11-23T09:45:12.614Z,68.57
2022-11-23T09:47:52.926Z,46.97
2022-11-23T09:50:39.010Z,138.03
2022-11-23T09:53:11.425Z,46.23
2022-11-23T09:55:46.826Z,40.90
2022-11-23T09:58:16.602Z,39.17
2022-11-23T10:00:47.170Z,54.13
2022-11-23T10:03:16.349Z,58.40
2022-11-23T10:06:04.425Z,46.60
2022-11-23T10:08:32.327Z,44.90
2022-11-23T10:11:09.837Z,48.83
2022-11-23T10:13:45.558Z,46.50
2022-11-23T10:16:16.129Z,46.33
2022-11-23T10:18:53.527Z,43.30
2022-11-23T10:21:44.861Z,50.60
2022-11-23T10:24:21.029Z,42.45
2022-11-23T10:26:50.054Z,44.17
2022-11-23T10:29:18.205Z,39.93
2022-11-23T10:31:50.483Z,51.30
2022-11-23T10:34:33.500Z,42.70
2022-11-23T10:37:01.478Z,43.57
2022-11-23T10:39:30.273Z,61.93
2022-11-23T10:42:02.525Z,43.43
2022-11-23T10:44:31.087Z,44.07
2022-11-23T10:47:00.086Z,41.50
2022-11-23T10:49:34.662Z,44.60
2022-11-23T10:52:05.763Z,36.50
2022-11-23T10:54:36.238Z,38.63
2022-11-23T10:57:22.131Z,54.63
2022-11-23T10:59:58.311Z,39.40
2022-11-23T11:02:26.138Z,42.27
2022-11-23T11:05:13.545Z,38.10
2022-11-23T11:07:41.331Z,71.37
2022-11-23T11:10:29.218Z,36.40
2022-11-23T11:12:56.872Z,43.73
2022-11-23T11:15:25.115Z,33.07
2022-11-23T11:17:57.108Z,31.97
2022-11-23T11:20:31.499Z,36.50
2022-11-23T11:23:04.482Z,63.27
2022-11-23T11:25:35.022Z,33.33
2022-11-23T11:28:03.932Z,32.93
2022-11-23T11:30:44.006Z,49.27
2022-11-23T11:33:15.444Z,53.80
2022-11-23T11:35:44.343Z,69.07
2022-11-23T11:38:14.084Z,53.30
2022-11-23T11:40:49.566Z,43.57
2022-11-23T11:43:36.213Z,52.37
2022-11-23T11:46:29.040Z,48.60
2022-11-23T11:49:06.402Z,52.93
2022-11-23T11:51:48.940Z,44.20
2022-11-23T11:56:50.657Z,48.77
2022-11-23T11:59:21.467Z,40.67
2022-11-23T12:01:58.688Z,39.53
2022-11-23T12:04:36.267Z,41.37
2022-11-23T12:07:09.117Z,43.40
2022-11-23T12:09:40.048Z,45.73
2022-11-23T12:12:13.877Z,39.40
2022-11-23T12:14:41.491Z,33.57
2022-11-23T12:17:35.223Z,33.53
2022-11-23T12:20:12.948Z,40.73
2022-11-23T12:22:56.916Z,38.67
2022-11-23T12:25:24.411Z,34.77
2022-11-23T12:28:27.669Z,33.53
2022-11-23T12:31:22.541Z,38.37
2022-11-23T12:36:42.726Z,39.10
2022-11-23T12:39:28.858Z,45.73
2022-11-23T12:41:59.404Z,41.97
2022-11-23T12:44:45.902Z,47.27
2022-11-23T12:47:39.633Z,46.07
2022-11-23T12:50:17.661Z,35.07
2022-11-23T12:52:52.765Z,39.23
2022-11-23T12:55:21.478Z,42.03
2022-11-23T12:58:00.325Z,39.90
2022-11-23T13:00:35.127Z,45.40
2022-11-23T13:03:12.010Z,47.60
2022-11-23T13:05:55.375Z,40.73
2022-11-23T13:08:41.912Z,39.57
2022-11-23T13:11:19.242Z,31.13
2022-11-23T13:14:16.396Z,31.70
2022-11-23T13:16:46.731Z,35.30
2022-11-23T13:19:22.952Z,40.97
2022-11-23T13:21:51.342Z,48.37
2022-11-23T13:24:29.285Z,69.87
2022-11-23T13:27:16.304Z,99.77
2022-11-23T13:29:47.359Z,101.23
2022-11-23T13:32:35.055Z,60.78
2022-11-23T13:35:02.825Z,49.53
2022-11-23T13:37:31.395Z,118.40
2022-11-23T13:40:00.241Z,90.43
2022-11-23T13:42:28.448Z,67.93
2022-11-23T13:45:22.479Z,96.90
2022-11-23T13:48:09.186Z,69.80
2022-11-23T13:50:52.323Z,89.13
2022-11-23T13:53:25.594Z,81.40
2022-11-23T13:55:54.070Z,120.43
2022-11-23T13:58:22.656Z,73.37
2022-11-23T14:00:53.632Z,89.03
2022-11-23T14:03:40.541Z,92.47
2022-11-23T14:06:19.076Z,67.40
2022-11-23T14:08:47.629Z,88.50
2022-11-23T14:11:18.442Z,56.10
2022-11-23T14:13:52.525Z,62.50
2022-11-23T14:16:28.070Z,73.00
2022-11-23T14:19:18.199Z,54.87
2022-11-23T14:21:54.837Z,48.57
2022-11-23T14:24:28.739Z,45.90
2022-11-23T14:27:30.908Z,63.67
2022-11-23T14:29:54.524Z,50.80
2022-11-23T14:32:22.111Z,73.23
2022-11-23T14:34:49.900Z,62.17
2022-11-23T14:37:26.860Z,65.83
2022-11-23T14:40:18.218Z,62.20
2022-11-23T14:42:50.894Z,64.00
2022-11-23T14:45:20.926Z,66.30
2022-11-23T14:47:54.492Z,55.33
2022-11-23T14:50:24.268Z,50.77
2022-11-23T14:52:54.484Z,56.88
2022-11-23T14:55:24.387Z,31.23
2022-11-23T14:57:54.554Z,21.43
2022-11-23T15:00:28.135Z,43.27
2022-11-23T15:02:57.221Z,46.37
2022-11-23T15:05:29.469Z,52.73
2022-11-23T15:08:06.645Z,58.60
2022-11-23T15:10:49.803Z,58.27
2022-11-23T15:13:20.191Z,48.70
2022-11-23T15:15:52.099Z,47.67
2022-11-23T15:18:30.163Z,46.92
2022-11-23T15:20:59.209Z,45.33
2022-11-23T15:23:30.348Z,72.70
2022-11-23T15:26:00.188Z,90.97
2022-11-23T15:28:28.641Z,116.53
2022-11-23T15:30:58.821Z,92.63
2022-11-23T15:33:26.905Z,77.53
2022-11-23T15:35:55.616Z,63.40
2022-11-23T15:38:24.159Z,56.27
2022-11-23T15:40:52.524Z,68.27
2022-11-23T15:43:20.841Z,79.83
2022-11-23T15:45:48.890Z,89.87
2022-11-23T15:48:19.782Z,107.57
2022-11-23T15:50:54.932Z,85.47
2022-11-23T15:53:25.253Z,75.33
2022-11-23T15:55:54.001Z,79.93
2022-11-23T15:58:21.972Z,97.30
2022-11-23T16:00:56.722Z,97.33
2022-11-23T16:03:24.368Z,69.23
2022-11-23T16:06:18.567Z,68.70
2022-11-23T16:08:46.769Z,80.73
2022-11-23T16:11:22.868Z,82.07
2022-11-23T16:13:50.594Z,67.70
2022-11-23T16:16:21.423Z,53.93
2022-11-23T16:18:56.558Z,75.83
2022-11-23T16:21:25.564Z,84.53
2022-11-23T16:23:55.844Z,93.63
2022-11-23T16:26:34.216Z,83.13
2022-11-23T16:29:02.540Z,60.17
2022-11-23T16:31:37.939Z,61.13
2022-11-23T16:34:17.365Z,55.60
2022-11-23T16:36:45.885Z,72.57
2022-11-23T16:39:13.826Z,61.90
2022-11-23T16:41:41.868Z,79.20
2022-11-23T16:44:09.504Z,76.07
2022-11-23T16:46:43.082Z,66.43
2022-11-23T16:49:16.017Z,68.10
2022-11-23T16:51:44.122Z,61.03
2022-11-23T16:54:14.223Z,54.67
2022-11-23T16:56:45.239Z,75.93
2022-11-23T16:59:18.050Z,76.57
2022-11-23T17:01:51.289Z,57.10
2022-11-23T17:04:21.716Z,67.77
2022-11-23T17:06:50.057Z,59.30
2022-11-23T17:09:17.605Z,35.60
2022-11-23T17:11:46.985Z,56.10
2022-11-23T17:14:18.836Z,62.90
2022-11-23T17:16:47.859Z,64.20
2022-11-23T17:19:19.331Z,53.97
2022-11-23T17:21:47.664Z,70.57
2022-11-23T17:24:15.324Z,76.43
2022-11-23T17:26:47.109Z,62.20
2022-11-23T17:29:16.555Z,79.30
2022-11-23T17:31:45.557Z,55.70
2022-11-23T17:34:13.962Z,62.00
2022-11-23T17:36:46.821Z,145.30
2022-11-23T17:39:22.653Z,115.77
2022-11-23T17:41:50.730Z,74.23
2022-11-23T17:44:18.765Z,71.53
2022-11-23T17:46:47.553Z,127.07
2022-11-23T17:49:17.952Z,81.03
2022-11-23T17:51:46.358Z,57.40
2022-11-23T17:54:13.967Z,61.70
2022-11-23T17:56:41.914Z,59.87
2022-11-23T17:59:09.434Z,55.03
2022-11-23T18:01:37.578Z,50.90
2022-11-23T18:04:05.505Z,59.53
2022-11-23T18:06:33.739Z,49.77
2022-11-23T18:09:01.510Z,48.97
2022-11-23T18:11:29.423Z,83.17
2022-11-23T18:13:57.297Z,89.57
2022-11-23T18:16:25.234Z,59.70
2022-11-23T18:18:53.273Z,52.57
2022-11-23T18:21:21.291Z,53.50
2022-11-23T18:23:49.001Z,52.60
2022-11-23T18:26:25.617Z,58.33
2022-11-23T18:28:53.496Z,59.03
2022-11-23T18:31:21.661Z,66.33
2022-11-23T18:33:49.365Z,83.80
2022-11-23T18:36:17.381Z,65.77
2022-11-23T18:38:45.229Z,61.77
2022-11-23T18:41:16.036Z,60.83
2022-11-23T18:43:44.300Z,63.87
2022-11-23T18:46:12.781Z,75.57
2022-11-23T18:48:40.681Z,55.20
2022-11-23T18:51:11.814Z,81.83
2022-11-23T18:53:40.827Z,100.18
2022-11-23T18:56:09.522Z,80.07
2022-11-23T18:58:38.442Z,72.37
2022-11-23T19:01:13.045Z,81.53
2022-11-23T19:03:44.576Z,86.97
2022-11-23T19:06:13.724Z,54.05
2022-11-23T19:08:42.961Z,55.57
2022-11-23T19:11:17.565Z,73.87
2022-11-23T19:13:49.841Z,78.40
2022-11-23T19:18:45.669Z,93.53
2022-11-23T19:21:13.633Z,100.03
2022-11-23T19:23:41.765Z,90.43
2022-11-23T19:26:09.555Z,82.47
2022-11-23T19:28:37.487Z,71.73
2022-11-23T19:31:12.355Z,63.10
2022-11-23T19:33:40.277Z,62.43
2022-11-23T19:36:11.953Z,112.40
2022-11-23T19:38:40.101Z,116.57
2022-11-23T19:41:08.061Z,90.90
2022-11-23T19:43:35.990Z,218.53
2022-11-23T19:46:05.983Z,360.53
2022-11-23T19:48:34.584Z,229.30
2022-11-23T19:51:03.798Z,170.67
2022-11-23T19:53:32.843Z,164.70
2022-11-23T19:56:01.964Z,195.83
2022-11-23T19:58:33.186Z,84.60
2022-11-23T20:01:01.899Z,108.50
2022-11-23T20:03:30.013Z,124.93
2022-11-23T20:06:01.026Z,94.77
2022-11-23T20:08:29.047Z,82.87
2022-11-23T20:10:57.146Z,84.23
2022-11-23T20:13:25.447Z,89.73
2022-11-23T20:15:53.056Z,106.93
2022-11-23T20:18:23.465Z,82.73
2022-11-23T20:20:55.667Z,114.33
2022-11-23T20:23:23.774Z,149.43
2022-11-23T20:25:51.460Z,95.27
2022-11-23T20:28:19.356Z,185.13
2022-11-23T20:30:50.749Z,94.97
2022-11-23T20:33:19.571Z,211.27
2022-11-23T20:35:49.082Z,134.77
2022-11-23T20:38:17.445Z,110.23
2022-11-23T20:40:45.994Z,69.17
2022-11-23T20:43:15.051Z,71.40
2022-11-23T20:45:42.719Z,76.00
2022-11-23T20:48:12.088Z,63.37
2022-11-23T20:50:39.744Z,59.87
2022-11-23T20:53:07.686Z,62.70
2022-11-23T20:55:36.619Z,57.67
2022-11-23T20:58:04.716Z,57.17
2022-11-23T21:00:32.410Z,53.37
2022-11-23T21:03:00.394Z,53.03
2022-11-23T21:05:28.445Z,49.67
2022-11-23T21:07:56.565Z,58.17
2022-11-23T21:10:42.884Z,52.50
2022-11-23T21:13:48.687Z,59.77
2022-11-23T21:16:16.823Z,61.07
2022-11-23T21:18:44.608Z,57.23
2022-11-23T21:21:12.869Z,68.77
2022-11-23T21:23:40.724Z,65.00
2022-11-23T21:26:08.409Z,63.93
2022-11-23T21:28:36.316Z,58.23
2022-11-23T21:31:08.362Z,59.00
2022-11-23T21:33:39.192Z,62.73
2022-11-23T21:36:07.196Z,60.87
2022-11-23T21:38:35.766Z,57.40
2022-11-23T21:41:04.133Z,56.47
2022-11-23T21:43:32.471Z,56.27
2022-11-23T21:46:05.783Z,59.67
2022-11-23T21:48:34.483Z,56.00
2022-11-23T21:51:06.695Z,58.77
2022-11-23T21:53:35.088Z,61.13
2022-11-23T21:56:05.071Z,62.60
2022-11-23T21:58:33.312Z,59.90
2022-11-23T22:01:08.574Z,60.27
2022-11-23T22:03:40.249Z,61.27
2022-11-23T22:06:08.170Z,76.25
2022-11-23T22:08:40.046Z,58.37
2022-11-23T22:11:15.543Z,64.05
2022-11-23T22:13:43.936Z,52.37
2022-11-23T22:16:15.686Z,55.57
2022-11-23T22:21:11.454Z,46.17
2022-11-23T22:23:39.662Z,52.27
2022-11-23T22:26:11.994Z,50.60
2022-11-23T22:28:41.272Z,50.03
2022-11-23T22:31:09.817Z,61.57
2022-11-23T22:33:38.237Z,53.20
2022-11-23T22:36:07.264Z,52.33
2022-11-23T22:38:35.341Z,55.00
2022-11-23T22:41:03.716Z,53.50
2022-11-23T22:43:31.818Z,51.70
2022-11-23T22:46:05.663Z,56.57
2022-11-23T22:48:36.655Z,51.40
2022-11-23T22:51:04.825Z,54.30
2022-11-23T22:53:33.315Z,53.60
2022-11-23T22:56:05.363Z,53.53
2022-11-23T22:58:33.484Z,57.13
2022-11-23T23:01:08.547Z,51.80
2022-11-23T23:03:36.808Z,55.60
2022-11-23T23:06:05.090Z,51.70
2022-11-23T23:08:33.108Z,54.57
2022-11-23T23:11:07.544Z,50.73
2022-11-23T23:13:35.739Z,50.47
2022-11-23T23:16:08.335Z,53.63
2022-11-23T23:18:36.356Z,51.67
2022-11-23T23:21:04.147Z,56.53
2022-11-23T23:23:32.171Z,57.33
2022-11-23T23:25:59.835Z,51.10
2022-11-23T23:28:27.803Z,53.27
2022-11-23T23:31:06.720Z,56.77
2022-11-23T23:33:34.910Z,51.90
2022-11-23T23:36:05.525Z,55.77
2022-11-23T23:38:33.962Z,50.93
2022-11-23T23:41:02.246Z,49.23
2022-11-23T23:43:30.528Z,50.00
2022-11-23T23:46:17.544Z,53.10
2022-11-23T23:48:45.742Z,49.90
2022-11-23T23:51:14.917Z,46.67
2022-11-23T23:53:43.028Z,51.70
2022-11-23T23:56:18.271Z,53.07
2022-11-23T23:58:46.242Z,51.40
